Language: 


Des rapports , des résumés tant et plus, au choix de chacun....


Données statistiques de la station
Quotidien Rapport Mars 13, 2017 Unités:  Métrique    Anglais   les deux
« Précédent Jour
Suivant Jour »
Quotidien Hebdomadaire Mensuel Annuel Actuel
  Haut: Bas: Moyen:
Température: 14.6 °C 3.2 °C 8.6 °C
Pt de rosée: 11.2 °C 2.5 °C 6.6 °C
Humidité: 98 % 67 % 88 %
Vitesse du vent: 16.9 km/h 0.0 km/h 4.9 km/h
Rafales: 21.2 km/h - -
Vent:- - NW
Pression: 1032.1 hPa 1016.8 hPa -
Précipitation: 0.0 mm    
Historical Graphs
 
 
Données statistiques pour Mars 13, 2017
Heure Température Point de rosée Pression Vent Vitesse du vent Refales Humidité Pluie (taux horaire)
00:03 5.6 °C 3.6 °C 1016.8 hPa Calm   2.6 km/h 87 % 0.0 mm
00:08 5.5 °C 3.5 °C 1016.8 hPa Calm   5.0 km/h 87 % 0.0 mm
00:13 5.6 °C 3.6 °C 1016.8 hPa NW 3.2 km/h 5.0 km/h 87 % 0.0 mm
00:18 5.8 °C 3.9 °C 1016.8 hPa Calm   5.0 km/h 88 % 0.0 mm
00:23 5.9 °C 4.2 °C 1018.2 hPa WNW 5.0 km/h 6.1 km/h 89 % 0.0 mm
00:28 6.2 °C 4.8 °C 1018.2 hPa North 4.0 km/h 8.7 km/h 91 % 0.0 mm
00:33 6.4 °C 5.2 °C 1018.2 hPa NW 3.2 km/h 8.7 km/h 92 % 0.0 mm
00:38 6.4 °C 5.2 °C 1018.2 hPa WNW 5.5 km/h 9.0 km/h 92 % 0.0 mm
00:43 6.4 °C 5.0 °C 1018.2 hPa Calm   9.0 km/h 91 % 0.0 mm
00:48 6.4 °C 5.0 °C 1018.2 hPa Calm   6.9 km/h 91 % 0.0 mm
00:53 6.3 °C 4.9 °C 1018.2 hPa Calm   5.0 km/h 91 % 0.0 mm
00:58 6.3 °C 4.9 °C 1018.2 hPa NW 1.4 km/h 6.4 km/h 91 % 0.0 mm
01:03 6.3 °C 4.9 °C 1018.2 hPa Calm   6.4 km/h 91 % 0.0 mm
01:08 6.2 °C 4.8 °C 1018.8 hPa Calm   6.9 km/h 91 % 0.0 mm
01:13 6.3 °C 4.9 °C 1018.8 hPa West 5.0 km/h 8.7 km/h 91 % 0.0 mm
01:18 6.3 °C 4.9 °C 1018.8 hPa West 4.0 km/h 8.7 km/h 91 % 0.0 mm
01:23 6.3 °C 5.1 °C 1018.8 hPa WNW 2.6 km/h 7.6 km/h 92 % 0.0 mm
01:28 6.2 °C 4.9 °C 1018.8 hPa Calm   6.9 km/h 92 % 0.0 mm
01:33 6.0 °C 4.6 °C 1018.8 hPa Calm   5.0 km/h 91 % 0.0 mm
01:38 5.9 °C 4.5 °C 1018.8 hPa Calm   3.2 km/h 91 % 0.0 mm
01:43 5.7 °C 4.3 °C 1018.8 hPa Calm   3.2 km/h 91 % 0.0 mm
01:48 5.8 °C 4.7 °C 1018.8 hPa North 1.8 km/h 5.8 km/h 93 % 0.0 mm
01:53 6.0 °C 4.9 °C 1018.8 hPa WNW 10.1 km/h 10.1 km/h 93 % 0.0 mm
01:58 6.2 °C 5.3 °C 1018.8 hPa North 6.1 km/h 10.1 km/h 94 % 0.0 mm
02:03 6.3 °C 5.6 °C 1018.8 hPa NNW 3.2 km/h 6.1 km/h 95 % 0.0 mm
02:08 6.4 °C 5.6 °C 1018.8 hPa Calm   9.7 km/h 95 % 0.0 mm
02:13 6.3 °C 5.6 °C 1018.8 hPa Calm   9.7 km/h 95 % 0.0 mm
02:18 6.2 °C 5.3 °C 1018.8 hPa WSW 3.2 km/h 6.4 km/h 94 % 0.0 mm
02:23 6.1 °C 5.2 °C 1018.8 hPa WSW 1.4 km/h 6.1 km/h 94 % 0.0 mm
02:28 5.9 °C 4.8 °C 1018.8 hPa Calm   4.0 km/h 93 % 0.0 mm
02:33 5.7 °C 4.7 °C 1018.8 hPa WNW 1.4 km/h 4.0 km/h 93 % 0.0 mm
02:38 5.7 °C 4.8 °C 1018.8 hPa WNW 4.7 km/h 6.1 km/h 94 % 0.0 mm
02:43 5.7 °C 4.8 °C 1018.8 hPa WNW 1.4 km/h 6.1 km/h 94 % 0.0 mm
02:48 5.7 °C 4.9 °C 1018.8 hPa West 2.1 km/h 6.1 km/h 95 % 0.0 mm
02:53 5.6 °C 4.7 °C 1018.8 hPa WSW 2.1 km/h 5.5 km/h 94 % 0.0 mm
02:58 5.2 °C 4.2 °C 1018.8 hPa WSW 4.0 km/h 5.5 km/h 93 % 0.0 mm
03:03 4.8 °C 3.8 °C 1018.8 hPa Calm   4.7 km/h 93 % 0.0 mm
03:08 4.6 °C 3.6 °C 1018.8 hPa WSW 1.8 km/h 2.6 km/h 93 % 0.0 mm
03:13 4.5 °C 3.5 °C 1018.8 hPa West 1.8 km/h 6.9 km/h 93 % 0.0 mm
03:18 4.5 °C 3.6 °C 1018.8 hPa West 3.2 km/h 6.9 km/h 94 % 0.0 mm
03:23 4.6 °C 3.9 °C 1019.9 hPa West 4.7 km/h 6.9 km/h 95 % 0.0 mm
03:28 4.8 °C 4.1 °C 1019.9 hPa West 4.0 km/h 5.8 km/h 95 % 0.0 mm
03:33 4.9 °C 4.2 °C 1019.9 hPa Calm   5.8 km/h 95 % 0.0 mm
03:38 5.0 °C 4.4 °C 1019.9 hPa Calm   5.0 km/h 96 % 0.0 mm
03:43 5.0 °C 4.4 °C 1019.9 hPa West 3.2 km/h 5.8 km/h 96 % 0.0 mm
03:48 5.2 °C 4.6 °C 1019.9 hPa West 3.2 km/h 6.1 km/h 96 % 0.0 mm
03:53 5.3 °C 4.7 °C 1019.9 hPa West 3.5 km/h 6.1 km/h 96 % 0.0 mm
03:58 5.4 °C 4.8 °C 1019.9 hPa West 3.5 km/h 6.1 km/h 96 % 0.0 mm
04:03 5.4 °C 4.8 °C 1019.9 hPa WNW 2.6 km/h 6.9 km/h 96 % 0.0 mm
04:08 5.5 °C 4.9 °C 1020.9 hPa West 2.6 km/h 6.9 km/h 96 % 0.0 mm
04:13 5.5 °C 4.9 °C 1020.9 hPa WNW 1.8 km/h 5.5 km/h 96 % 0.0 mm
04:18 5.3 °C 4.7 °C 1020.9 hPa Calm   4.3 km/h 96 % 0.0 mm
04:23 5.2 °C 4.6 °C 1020.9 hPa Calm   4.0 km/h 96 % 0.0 mm
04:28 5.1 °C 4.5 °C 1020.9 hPa West 4.7 km/h 5.0 km/h 96 % 0.0 mm
04:33 5.3 °C 4.8 °C 1020.9 hPa NW 1.8 km/h 6.4 km/h 97 % 0.0 mm
04:38 5.5 °C 5.1 °C 1020.9 hPa Calm   6.4 km/h 97 % 0.0 mm
04:44 5.7 °C 5.4 °C 1020.9 hPa Calm   9.7 km/h 98 % 0.0 mm
04:49 5.8 °C 5.5 °C 1020.9 hPa WNW 1.8 km/h 9.7 km/h 98 % 0.0 mm
04:54 5.9 °C 5.6 °C 1020.9 hPa North 2.1 km/h 5.8 km/h 98 % 0.0 mm
04:59 5.9 °C 5.6 °C 1020.9 hPa North 3.5 km/h 5.8 km/h 98 % 0.0 mm
05:04 6.0 °C 5.7 °C 1020.9 hPa North 2.6 km/h 6.1 km/h 98 % 0.0 mm
05:09 6.2 °C 5.9 °C 1020.9 hPa Calm   9.7 km/h 98 % 0.0 mm
05:14 6.3 °C 6.0 °C 1020.9 hPa NNW 4.0 km/h 10.5 km/h 98 % 0.0 mm
05:19 6.3 °C 6.0 °C 1020.9 hPa North 2.6 km/h 10.5 km/h 98 % 0.0 mm
05:24 6.3 °C 6.0 °C 1020.9 hPa NNE 4.0 km/h 9.0 km/h 98 % 0.0 mm
05:29 6.3 °C 6.0 °C 1020.9 hPa NNE 2.1 km/h 9.3 km/h 98 % 0.0 mm
05:34 6.2 °C 5.9 °C 1020.9 hPa NNE 4.0 km/h 9.3 km/h 98 % 0.0 mm
05:39 6.2 °C 5.9 °C 1020.9 hPa NNE 4.3 km/h 6.9 km/h 98 % 0.0 mm
05:44 6.2 °C 5.9 °C 1020.9 hPa North 3.2 km/h 5.8 km/h 98 % 0.0 mm
05:49 6.2 °C 5.9 °C 1020.9 hPa Calm   8.7 km/h 98 % 0.0 mm
05:54 6.1 °C 5.8 °C 1020.9 hPa Calm   8.7 km/h 98 % 0.0 mm
05:55 6.1 °C 5.8 °C 1020.9 hPa Calm   8.7 km/h 98 % 0.0 mm
06:00 6.1 °C 5.8 °C 1020.9 hPa Calm   5.5 km/h 98 % 0.0 mm
06:05 6.0 °C 5.7 °C 1020.9 hPa Calm   4.7 km/h 98 % 0.0 mm
06:10 5.9 °C 5.6 °C 1020.9 hPa WNW 4.0 km/h 4.7 km/h 98 % 0.0 mm
06:15 6.0 °C 5.7 °C 1020.9 hPa NNW 3.2 km/h 7.9 km/h 98 % 0.0 mm
06:20 6.0 °C 5.7 °C 1020.9 hPa North 5.5 km/h 12.2 km/h 98 % 0.0 mm
06:25 6.1 °C 5.8 °C 1021.9 hPa WNW 10.1 km/h 12.2 km/h 98 % 0.0 mm
06:30 6.2 °C 5.9 °C 1021.9 hPa NNW 5.0 km/h 11.9 km/h 98 % 0.0 mm
06:35 6.2 °C 5.9 °C 1021.9 hPa WNW 6.1 km/h 11.9 km/h 98 % 0.0 mm
06:40 6.2 °C 5.9 °C 1021.9 hPa North 6.4 km/h 11.9 km/h 98 % 0.0 mm
06:45 6.3 °C 6.0 °C 1021.9 hPa NNW 9.3 km/h 12.2 km/h 98 % 0.0 mm
06:50 6.3 °C 6.0 °C 1021.9 hPa NNW 5.5 km/h 12.2 km/h 98 % 0.0 mm
06:56 6.2 °C 5.9 °C 1021.9 hPa WNW 3.2 km/h 10.1 km/h 98 % 0.0 mm
07:01 6.2 °C 5.9 °C 1021.9 hPa NNW 9.7 km/h 9.7 km/h 98 % 0.0 mm
07:06 6.3 °C 6.0 °C 1021.9 hPa WNW 7.6 km/h 9.7 km/h 98 % 0.0 mm
07:11 6.4 °C 6.1 °C 1021.9 hPa North 11.6 km/h 14.8 km/h 98 % 0.0 mm
07:16 6.4 °C 6.1 °C 1021.9 hPa WNW 4.7 km/h 14.8 km/h 98 % 0.0 mm
07:21 6.4 °C 6.2 °C 1021.9 hPa NNW 5.5 km/h 12.6 km/h 98 % 0.0 mm
07:26 6.7 °C 6.4 °C 1022.9 hPa NNW 13.0 km/h 17.7 km/h 98 % 0.0 mm
07:31 6.8 °C 6.4 °C 1022.9 hPa NNW 14.3 km/h 17.7 km/h 98 % 0.0 mm
07:36 6.8 °C 6.6 °C 1022.9 hPa NNW 6.1 km/h 20.6 km/h 98 % 0.0 mm
07:41 6.9 °C 6.7 °C 1022.9 hPa NNW 11.6 km/h 20.6 km/h 98 % 0.0 mm
07:46 7.2 °C 6.8 °C 1022.9 hPa North 7.9 km/h 18.3 km/h 98 % 0.0 mm
07:51 7.3 °C 7.1 °C 1022.9 hPa West 9.3 km/h 16.6 km/h 98 % 0.0 mm
07:56 7.6 °C 7.3 °C 1022.9 hPa North 8.7 km/h 20.1 km/h 98 % 0.0 mm
08:01 7.8 °C 7.6 °C 1022.9 hPa North 9.3 km/h 21.2 km/h 98 % 0.0 mm
08:06 8.1 °C 7.7 °C 1022.9 hPa North 9.7 km/h 21.2 km/h 98 % 0.0 mm
08:11 8.1 °C 7.8 °C 1023.9 hPa North 14.0 km/h 20.9 km/h 98 % 0.0 mm
08:16 8.2 °C 7.9 °C 1023.9 hPa North 10.1 km/h 19.8 km/h 98 % 0.0 mm
08:21 8.4 °C 8.1 °C 1023.9 hPa North 8.7 km/h 19.8 km/h 98 % 0.0 mm
08:26 8.6 °C 8.3 °C 1023.9 hPa NW 14.0 km/h 16.6 km/h 98 % 0.0 mm
08:31 8.8 °C 8.5 °C 1023.9 hPa NNW 6.4 km/h 15.8 km/h 98 % 0.0 mm
08:36 8.8 °C 8.5 °C 1023.9 hPa North 8.7 km/h 15.8 km/h 98 % 0.0 mm
08:41 8.8 °C 8.5 °C 1024.9 hPa North 5.8 km/h 12.6 km/h 98 % 0.0 mm
08:46 8.9 °C 8.6 °C 1024.9 hPa North 6.9 km/h 7.9 km/h 98 % 0.0 mm
08:51 9.0 °C 8.7 °C 1024.9 hPa NNW 4.0 km/h 7.9 km/h 98 % 0.0 mm
08:56 9.0 °C 8.7 °C 1024.9 hPa North 5.8 km/h 12.6 km/h 98 % 0.0 mm
09:01 9.1 °C 8.8 °C 1024.9 hPa North 7.9 km/h 12.6 km/h 98 % 0.0 mm
09:06 9.1 °C 8.8 °C 1024.9 hPa North 7.2 km/h 11.9 km/h 98 % 0.0 mm
09:11 9.2 °C 8.9 °C 1024.9 hPa North 5.8 km/h 11.9 km/h 98 % 0.0 mm
09:16 9.3 °C 9.0 °C 1024.9 hPa NNW 8.7 km/h 10.5 km/h 98 % 0.0 mm
09:21 9.3 °C 9.0 °C 1024.9 hPa NE 4.7 km/h 9.7 km/h 98 % 0.0 mm
09:26 9.4 °C 9.1 °C 1024.9 hPa NNE 3.5 km/h 9.0 km/h 98 % 0.0 mm
09:31 9.4 °C 9.1 °C 1024.9 hPa NW 5.0 km/h 10.1 km/h 98 % 0.0 mm
09:36 9.5 °C 9.2 °C 1024.9 hPa North 6.1 km/h 10.1 km/h 98 % 0.0 mm
09:41 9.6 °C 9.3 °C 1023.9 hPa NNW 5.0 km/h 9.0 km/h 98 % 0.0 mm
09:46 9.7 °C 9.4 °C 1023.9 hPa NNW 6.4 km/h 9.3 km/h 98 % 0.0 mm
09:51 9.8 °C 9.5 °C 1023.9 hPa NNW 4.7 km/h 9.3 km/h 98 % 0.0 mm
09:56 9.9 °C 9.6 °C 1024.9 hPa NW 5.8 km/h 9.7 km/h 98 % 0.0 mm
10:01 9.9 °C 9.6 °C 1024.9 hPa North 12.2 km/h 12.2 km/h 98 % 0.0 mm
10:06 10.0 °C 9.7 °C 1024.9 hPa NNW 6.9 km/h 14.0 km/h 98 % 0.0 mm
10:11 10.1 °C 9.8 °C 1026.0 hPa NNW 8.7 km/h 14.0 km/h 98 % 0.0 mm
10:16 10.4 °C 10.1 °C 1026.0 hPa North 7.6 km/h 12.2 km/h 98 % 0.0 mm
10:21 10.6 °C 10.3 °C 1026.0 hPa North 4.3 km/h 12.2 km/h 98 % 0.0 mm
10:26 10.7 °C 10.4 °C 1026.0 hPa North 9.7 km/h 15.8 km/h 98 % 0.0 mm
10:31 10.8 °C 10.3 °C 1026.0 hPa North 9.3 km/h 15.8 km/h 97 % 0.0 mm
10:36 11.0 °C 10.5 °C 1026.0 hPa NNW 13.7 km/h 15.4 km/h 97 % 0.0 mm
10:41 11.0 °C 10.5 °C 1026.0 hPa NNE 5.8 km/h 15.4 km/h 97 % 0.0 mm
10:46 11.1 °C 10.4 °C 1026.0 hPa NNW 7.9 km/h 13.7 km/h 96 % 0.0 mm
10:51 10.9 °C 10.3 °C 1026.0 hPa NW 9.3 km/h 19.5 km/h 96 % 0.0 mm
10:56 10.8 °C 10.2 °C 1026.0 hPa NNW 11.6 km/h 19.5 km/h 96 % 0.0 mm
11:01 10.9 °C 10.3 °C 1026.0 hPa North 10.8 km/h 12.6 km/h 96 % 0.0 mm
11:06 11.0 °C 10.2 °C 1026.0 hPa North 5.5 km/h 11.9 km/h 95 % 0.0 mm
11:11 11.3 °C 10.5 °C 1027.0 hPa North 6.4 km/h 13.7 km/h 95 % 0.0 mm
11:16 11.4 °C 10.6 °C 1027.0 hPa NNE 5.5 km/h 16.9 km/h 95 % 0.0 mm
11:21 11.4 °C 10.7 °C 1027.0 hPa North 6.9 km/h 16.9 km/h 95 % 0.0 mm
11:26 11.6 °C 10.8 °C 1027.0 hPa North 6.9 km/h 13.7 km/h 95 % 0.0 mm
11:32 11.7 °C 10.7 °C 1027.0 hPa NNW 9.3 km/h 13.7 km/h 94 % 0.0 mm
11:37 12.1 °C 11.1 °C 1027.0 hPa WNW 5.5 km/h 10.1 km/h 94 % 0.0 mm
11:42 12.2 °C 11.2 °C 1027.0 hPa NNW 6.9 km/h 14.0 km/h 94 % 0.0 mm
11:47 12.2 °C 11.1 °C 1027.0 hPa North 4.3 km/h 14.0 km/h 93 % 0.0 mm
11:52 12.1 °C 10.8 °C 1027.0 hPa North 9.7 km/h 17.2 km/h 92 % 0.0 mm
11:57 12.1 °C 10.6 °C 1027.0 hPa NNW 15.8 km/h 17.2 km/h 91 % 0.0 mm
12:02 12.2 °C 10.7 °C 1027.0 hPa North 11.9 km/h 15.8 km/h 91 % 0.0 mm
12:07 12.1 °C 10.4 °C 1027.0 hPa North 6.4 km/h 16.9 km/h 90 % 0.0 mm
12:12 11.8 °C 10.0 °C 1027.0 hPa NNW 10.5 km/h 16.9 km/h 89 % 0.0 mm
12:17 11.8 °C 10.1 °C 1027.0 hPa NNE 9.7 km/h 16.6 km/h 89 % 0.0 mm
12:22 11.8 °C 10.2 °C 1027.0 hPa North 9.0 km/h 16.3 km/h 90 % 0.0 mm
12:27 11.9 °C 10.2 °C 1027.0 hPa NNE 10.5 km/h 16.3 km/h 89 % 0.0 mm
12:32 12.1 °C 10.3 °C 1027.0 hPa NNW 10.5 km/h 16.3 km/h 89 % 0.0 mm
12:37 12.2 °C 10.4 °C 1026.0 hPa WNW 12.6 km/h 16.9 km/h 89 % 0.0 mm
12:42 12.7 °C 10.7 °C 1026.0 hPa North 16.9 km/h 16.9 km/h 88 % 0.0 mm
12:47 12.7 °C 10.6 °C 1026.0 hPa North 16.6 km/h 16.9 km/h 87 % 0.0 mm
12:52 12.8 °C 10.2 °C 1026.0 hPa North 10.1 km/h 19.5 km/h 84 % 0.0 mm
12:58 13.1 °C 10.5 °C 1026.0 hPa NNW 9.0 km/h 19.5 km/h 84 % 0.0 mm
13:03 13.1 °C 10.5 °C 1026.0 hPa NW 6.4 km/h 15.4 km/h 84 % 0.0 mm
13:08 13.4 °C 10.8 °C 1027.0 hPa North 7.2 km/h 12.6 km/h 84 % 0.0 mm
13:13 13.7 °C 10.9 °C 1027.0 hPa North 9.7 km/h 16.3 km/h 83 % 0.0 mm
13:18 13.8 °C 10.6 °C 1027.0 hPa NW 13.0 km/h 17.7 km/h 81 % 0.0 mm
13:23 14.1 °C 10.7 °C 1027.0 hPa North 8.7 km/h 17.7 km/h 80 % 0.0 mm
13:28 14.3 °C 10.5 °C 1027.0 hPa North 9.7 km/h 16.3 km/h 78 % 0.0 mm
13:33 14.6 °C 10.6 °C 1027.0 hPa North 15.8 km/h 16.3 km/h 77 % 0.0 mm
13:38 14.4 °C 10.1 °C 1027.0 hPa North 8.7 km/h 15.8 km/h 75 % 0.0 mm
13:43 14.1 °C 9.9 °C 1027.0 hPa North 9.0 km/h 15.8 km/h 76 % 0.0 mm
13:48 14.0 °C 9.8 °C 1027.0 hPa WNW 8.7 km/h 11.9 km/h 76 % 0.0 mm
13:53 13.7 °C 9.4 °C 1027.0 hPa NNW 10.5 km/h 13.0 km/h 75 % 0.0 mm
13:58 13.6 °C 9.3 °C 1027.0 hPa North 13.0 km/h 14.0 km/h 75 % 0.0 mm
14:03 13.6 °C 9.3 °C 1027.0 hPa NNE 4.3 km/h 14.0 km/h 75 % 0.0 mm
14:08 13.7 °C 9.4 °C 1028.0 hPa North 5.0 km/h 17.7 km/h 75 % 0.0 mm
14:13 13.6 °C 9.3 °C 1028.0 hPa West 13.7 km/h 17.7 km/h 75 % 0.0 mm
14:18 13.5 °C 9.0 °C 1028.0 hPa NNW 10.5 km/h 16.3 km/h 74 % 0.0 mm
14:23 13.8 °C 9.3 °C 1027.0 hPa WNW 6.9 km/h 15.8 km/h 74 % 0.0 mm
14:28 13.8 °C 9.3 °C 1027.0 hPa North 7.9 km/h 15.8 km/h 74 % 0.0 mm
14:33 13.6 °C 9.1 °C 1027.0 hPa NNE 13.0 km/h 13.0 km/h 74 % 0.0 mm
14:38 13.3 °C 8.6 °C 1028.0 hPa North 8.7 km/h 15.8 km/h 73 % 0.0 mm
14:43 13.4 °C 8.9 °C 1028.0 hPa NW 9.0 km/h 16.9 km/h 74 % 0.0 mm
14:48 13.8 °C 9.1 °C 1028.0 hPa North 13.7 km/h 17.2 km/h 73 % 0.0 mm
14:53 13.9 °C 9.2 °C 1028.0 hPa North 6.9 km/h 17.2 km/h 73 % 0.0 mm
14:54 13.8 °C 8.8 °C 1028.0 hPa North 5.5 km/h 17.2 km/h 72 % 0.0 mm
14:59 13.8 °C 8.8 °C 1028.0 hPa North 9.3 km/h 13.7 km/h 72 % 0.0 mm
15:04 13.8 °C 8.8 °C 1028.0 hPa NNW 6.4 km/h 13.7 km/h 72 % 0.0 mm
15:09 14.0 °C 9.1 °C 1028.0 hPa NNW 6.9 km/h 13.0 km/h 72 % 0.0 mm
15:14 13.7 °C 8.6 °C 1028.0 hPa NNW 3.2 km/h 13.0 km/h 71 % 0.0 mm
15:19 14.0 °C 9.1 °C 1028.0 hPa NW 10.5 km/h 13.7 km/h 72 % 0.0 mm
15:24 14.1 °C 9.1 °C 1028.0 hPa North 5.5 km/h 17.2 km/h 72 % 0.0 mm
15:29 14.1 °C 8.9 °C 1028.0 hPa West 7.2 km/h 17.2 km/h 71 % 0.0 mm
15:34 14.0 °C 8.6 °C 1028.0 hPa North 9.7 km/h 19.8 km/h 70 % 0.0 mm
15:39 14.0 °C 8.6 °C 1029.0 hPa NNW 9.3 km/h 19.8 km/h 70 % 0.0 mm
15:44 14.1 °C 8.7 °C 1029.0 hPa NNW 9.7 km/h 14.0 km/h 70 % 0.0 mm
15:49 14.0 °C 8.4 °C 1029.0 hPa NNW 6.1 km/h 14.0 km/h 69 % 0.0 mm
15:54 13.7 °C 7.7 °C 1028.0 hPa NNW 10.1 km/h 14.0 km/h 67 % 0.0 mm
15:59 13.7 °C 7.9 °C 1028.0 hPa WNW 5.8 km/h 16.3 km/h 68 % 0.0 mm
16:04 13.9 °C 8.3 °C 1028.0 hPa North 7.2 km/h 16.3 km/h 69 % 0.0 mm
16:10 13.6 °C 7.8 °C 1028.0 hPa North 14.0 km/h 14.0 km/h 68 % 0.0 mm
16:15 13.5 °C 7.9 °C 1028.0 hPa NNW 7.6 km/h 16.9 km/h 69 % 0.0 mm
16:20 13.6 °C 8.2 °C 1028.0 hPa NNW 10.5 km/h 16.9 km/h 70 % 0.0 mm
16:24 13.2 °C 7.4 °C 1029.0 hPa North 11.6 km/h 15.1 km/h 68 % 0.0 mm
16:30 13.4 °C 8.1 °C 1029.0 hPa NNW 1.8 km/h 15.1 km/h 70 % 0.0 mm
16:35 13.6 °C 8.2 °C 1029.0 hPa North 5.0 km/h 9.7 km/h 70 % 0.0 mm
16:40 13.5 °C 7.9 °C 1029.0 hPa NW 4.3 km/h 10.1 km/h 69 % 0.0 mm
16:45 13.4 °C 7.8 °C 1029.0 hPa North 6.1 km/h 14.0 km/h 69 % 0.0 mm
16:50 13.2 °C 7.4 °C 1029.0 hPa NNW 3.5 km/h 14.0 km/h 68 % 0.0 mm
16:55 13.2 °C 7.7 °C 1029.0 hPa North 7.9 km/h 13.0 km/h 69 % 0.0 mm
17:00 13.2 °C 7.7 °C 1029.0 hPa NW 5.5 km/h 10.1 km/h 69 % 0.0 mm
17:05 13.1 °C 7.6 °C 1029.0 hPa North 6.9 km/h 10.1 km/h 69 % 0.0 mm
17:10 13.2 °C 7.7 °C 1028.0 hPa North 4.7 km/h 10.1 km/h 69 % 0.0 mm
17:15 13.1 °C 7.6 °C 1028.0 hPa NNE 10.1 km/h 10.1 km/h 69 % 0.0 mm
17:20 13.1 °C 7.3 °C 1028.0 hPa NNW 5.5 km/h 10.1 km/h 68 % 0.0 mm
17:25 12.9 °C 7.2 °C 1029.0 hPa North 2.1 km/h 9.3 km/h 68 % 0.0 mm
17:30 12.7 °C 7.1 °C 1029.0 hPa NNE 5.8 km/h 9.7 km/h 69 % 0.0 mm
17:35 12.6 °C 7.0 °C 1029.0 hPa North 9.0 km/h 11.6 km/h 69 % 0.0 mm
17:40 12.2 °C 6.7 °C 1029.0 hPa NNE 6.9 km/h 11.6 km/h 69 % 0.0 mm
17:45 12.2 °C 6.9 °C 1029.0 hPa NNW 4.7 km/h 11.6 km/h 70 % 0.0 mm
17:50 12.1 °C 6.9 °C 1029.0 hPa North 4.7 km/h 10.1 km/h 71 % 0.0 mm
17:55 12.1 °C 6.9 °C 1029.0 hPa WNW 4.0 km/h 10.1 km/h 71 % 0.0 mm
18:00 11.8 °C 6.8 °C 1029.0 hPa WNW 2.6 km/h 9.0 km/h 71 % 0.0 mm
18:05 11.6 °C 6.7 °C 1029.0 hPa North 5.0 km/h 9.0 km/h 72 % 0.0 mm
18:10 11.4 °C 6.6 °C 1029.0 hPa WNW 4.3 km/h 6.4 km/h 72 % 0.0 mm
18:15 11.3 °C 6.4 °C 1029.0 hPa WNW 4.0 km/h 7.9 km/h 72 % 0.0 mm
18:20 11.0 °C 6.1 °C 1029.0 hPa NW 5.5 km/h 7.9 km/h 72 % 0.0 mm
18:25 10.8 °C 6.1 °C 1030.0 hPa NNW 4.3 km/h 7.6 km/h 73 % 0.0 mm
18:30 10.7 °C 6.1 °C 1030.0 hPa North 4.0 km/h 6.4 km/h 73 % 0.0 mm
18:35 10.4 °C 5.9 °C 1030.0 hPa NNW 5.0 km/h 6.9 km/h 74 % 0.0 mm
18:40 10.3 °C 5.8 °C 1030.0 hPa NNW 4.3 km/h 6.9 km/h 74 % 0.0 mm
18:45 10.0 °C 5.8 °C 1030.0 hPa North 4.0 km/h 6.1 km/h 75 % 0.0 mm
18:50 9.9 °C 5.7 °C 1030.0 hPa WNW 4.7 km/h 6.9 km/h 75 % 0.0 mm
18:55 9.7 °C 5.7 °C 1030.0 hPa NW 5.8 km/h 7.9 km/h 76 % 0.0 mm
19:00 9.6 °C 5.6 °C 1030.0 hPa NW 4.3 km/h 7.9 km/h 76 % 0.0 mm
19:05 9.4 °C 5.6 °C 1030.0 hPa Calm   6.1 km/h 77 % 0.0 mm
19:11 9.2 °C 5.4 °C 1030.0 hPa NNW 5.0 km/h 6.1 km/h 77 % 0.0 mm
19:16 9.1 °C 5.3 °C 1030.0 hPa North 4.3 km/h 6.1 km/h 77 % 0.0 mm
19:21 8.9 °C 5.3 °C 1030.0 hPa Calm   6.1 km/h 78 % 0.0 mm
19:26 8.8 °C 5.4 °C 1030.0 hPa NNW 2.1 km/h 5.8 km/h 79 % 0.0 mm
19:31 8.6 °C 5.2 °C 1030.0 hPa Calm   4.3 km/h 79 % 0.0 mm
19:36 8.4 °C 5.0 °C 1030.0 hPa Calm   4.3 km/h 79 % 0.0 mm
19:41 8.1 °C 4.7 °C 1030.0 hPa Calm   1.4 km/h 79 % 0.0 mm
19:46 7.9 °C 4.7 °C 1030.0 hPa Calm     80 % 0.0 mm
19:51 7.7 °C 4.4 °C 1030.0 hPa Calm     80 % 0.0 mm
19:56 7.3 °C 4.1 °C 1031.0 hPa Calm     80 % 0.0 mm
20:01 6.9 °C 3.9 °C 1031.0 hPa Calm     81 % 0.0 mm
20:06 6.7 °C 3.8 °C 1031.0 hPa Calm     82 % 0.0 mm
20:11 6.4 °C 3.5 °C 1031.0 hPa Calm     82 % 0.0 mm
20:16 6.2 °C 3.5 °C 1031.0 hPa Calm     83 % 0.0 mm
20:21 6.1 °C 3.6 °C 1031.0 hPa Calm     84 % 0.0 mm
20:26 6.0 °C 3.5 °C 1031.0 hPa Calm     84 % 0.0 mm
20:31 5.9 °C 3.4 °C 1031.0 hPa Calm     84 % 0.0 mm
20:36 5.7 °C 3.5 °C 1031.0 hPa Calm     86 % 0.0 mm
20:41 5.6 °C 3.4 °C 1031.0 hPa Calm     86 % 0.0 mm
20:46 5.3 °C 3.1 °C 1031.0 hPa Calm     86 % 0.0 mm
20:51 5.0 °C 2.8 °C 1031.0 hPa Calm     86 % 0.0 mm
20:56 4.9 °C 2.9 °C 1031.0 hPa Calm     87 % 0.0 mm
21:01 4.8 °C 3.0 °C 1031.0 hPa Calm     88 % 0.0 mm
21:06 4.7 °C 2.9 °C 1031.0 hPa Calm     88 % 0.0 mm
21:11 4.5 °C 2.7 °C 1030.0 hPa Calm     88 % 0.0 mm
21:16 4.3 °C 2.5 °C 1030.0 hPa Calm     88 % 0.0 mm
21:21 4.3 °C 2.5 °C 1030.0 hPa Calm     88 % 0.0 mm
21:26 4.3 °C 2.7 °C 1031.0 hPa Calm     89 % 0.0 mm
21:31 4.2 °C 2.7 °C 1031.0 hPa Calm     90 % 0.0 mm
21:36 4.1 °C 2.6 °C 1031.0 hPa Calm     90 % 0.0 mm
21:41 4.1 °C 2.6 °C 1031.0 hPa Calm     90 % 0.0 mm
21:46 4.2 °C 2.9 °C 1031.0 hPa Calm     91 % 0.0 mm
21:51 4.5 °C 3.2 °C 1031.0 hPa West 2.6 km/h 5.5 km/h 91 % 0.0 mm
21:56 4.6 °C 3.4 °C 1031.0 hPa WNW 4.3 km/h 5.5 km/h 92 % 0.0 mm
22:01 4.8 °C 3.6 °C 1031.0 hPa West 3.2 km/h 4.3 km/h 92 % 0.0 mm
22:06 4.8 °C 3.8 °C 1031.0 hPa Calm   4.7 km/h 93 % 0.0 mm
22:11 4.6 °C 3.4 °C 1032.1 hPa West 4.0 km/h 4.7 km/h 92 % 0.0 mm
22:16 4.5 °C 3.3 °C 1032.1 hPa West 2.6 km/h 4.3 km/h 92 % 0.0 mm
22:22 4.3 °C 3.1 °C 1032.1 hPa West 3.5 km/h 4.0 km/h 92 % 0.0 mm
22:27 4.2 °C 3.1 °C 1032.1 hPa West 3.2 km/h 4.3 km/h 92 % 0.0 mm
22:32 4.1 °C 2.9 °C 1032.1 hPa Calm   4.3 km/h 92 % 0.0 mm
22:37 4.2 °C 3.2 °C 1032.1 hPa West 4.3 km/h 4.3 km/h 93 % 0.0 mm
22:42 4.3 °C 3.4 °C 1031.0 hPa Calm   4.3 km/h 94 % 0.0 mm
22:47 4.4 °C 3.6 °C 1031.0 hPa Calm   4.3 km/h 94 % 0.0 mm
22:52 4.5 °C 3.6 °C 1031.0 hPa Calm     94 % 0.0 mm
22:57 4.4 °C 3.6 °C 1031.0 hPa West 4.7 km/h 4.7 km/h 94 % 0.0 mm
23:02 4.3 °C 3.4 °C 1031.0 hPa WSW 5.0 km/h 6.9 km/h 94 % 0.0 mm
23:07 4.2 °C 3.3 °C 1031.0 hPa Calm   6.9 km/h 94 % 0.0 mm
23:12 4.0 °C 3.2 °C 1032.1 hPa Calm   5.5 km/h 94 % 0.0 mm
23:17 4.1 °C 3.2 °C 1032.1 hPa Calm   4.0 km/h 94 % 0.0 mm
23:22 4.1 °C 3.4 °C 1032.1 hPa Calm   4.0 km/h 95 % 0.0 mm
23:27 4.0 °C 3.3 °C 1032.1 hPa Calm   3.5 km/h 95 % 0.0 mm
23:32 3.8 °C 3.1 °C 1032.1 hPa Calm     95 % 0.0 mm
23:37 3.7 °C 3.0 °C 1032.1 hPa Calm     95 % 0.0 mm
23:42 3.6 °C 2.8 °C 1031.0 hPa Calm     95 % 0.0 mm
23:47 3.4 °C 2.7 °C 1031.0 hPa Calm     95 % 0.0 mm
23:52 3.3 °C 2.6 °C 1031.0 hPa Calm     95 % 0.0 mm
23:57 3.2 °C 2.5 °C 1031.0 hPa Calm     95 % 0.0 mm
Le Gheer Warneton
Courtoisie de Weather Underground - 2.25 mb

Mise a jour : 18/12/2017 17:24:11
Généré par Cumulus 1.9.4 (1099)